sensor_id;sensor_type;location;lat;lon;timestamp;temperature;humidity
9482;DHT22;4779;48.062;11.672;2023-04-02T00:02:30;7.60;99.90
9482;DHT22;4779;48.062;11.672;2023-04-02T00:05:30;7.60;99.90
9482;DHT22;4779;48.062;11.672;2023-04-02T00:08:00;7.50;99.90
9482;DHT22;4779;48.062;11.672;2023-04-02T00:10:32;7.60;99.90
9482;DHT22;4779;48.062;11.672;2023-04-02T00:13:04;7.50;99.90
9482;DHT22;4779;48.062;11.672;2023-04-02T00:15:32;7.50;99.90
9482;DHT22;4779;48.062;11.672;2023-04-02T00:18:00;7.50;99.90
9482;DHT22;4779;48.062;11.672;2023-04-02T00:20:29;7.60;99.90
9482;DHT22;4779;48.062;11.672;2023-04-02T00:22:57;7.60;99.90
9482;DHT22;4779;48.062;11.672;2023-04-02T00:25:26;7.50;99.90
9482;DHT22;4779;48.062;11.672;2023-04-02T00:27:55;7.40;99.90
9482;DHT22;4779;48.062;11.672;2023-04-02T00:30:22;7.40;99.90
9482;DHT22;4779;48.062;11.672;2023-04-02T00:32:50;7.50;99.90
9482;DHT22;4779;48.062;11.672;2023-04-02T00:35:22;7.40;99.90
9482;DHT22;4779;48.062;11.672;2023-04-02T00:37:50;7.40;99.90
9482;DHT22;4779;48.062;11.672;2023-04-02T00:40:21;7.40;99.90
9482;DHT22;4779;48.062;11.672;2023-04-02T00:42:49;7.40;99.90
9482;DHT22;4779;48.062;11.672;2023-04-02T00:45:23;7.40;99.90
9482;DHT22;4779;48.062;11.672;2023-04-02T00:47:51;7.40;99.90
9482;DHT22;4779;48.062;11.672;2023-04-02T00:50:22;7.40;99.90
9482;DHT22;4779;48.062;11.672;2023-04-02T00:52:51;7.30;99.90
9482;DHT22;4779;48.062;11.672;2023-04-02T00:55:21;7.30;99.90
9482;DHT22;4779;48.062;11.672;2023-04-02T00:57:49;7.40;99.90
9482;DHT22;4779;48.062;11.672;2023-04-02T01:00:22;7.40;99.90
9482;DHT22;4779;48.062;11.672;2023-04-02T01:03:28;7.40;99.90
9482;DHT22;4779;48.062;11.672;2023-04-02T01:05:58;7.30;99.90
9482;DHT22;4779;48.062;11.672;2023-04-02T01:08:36;7.30;99.90
9482;DHT22;4779;48.062;11.672;2023-04-02T01:11:28;7.30;99.90
9482;DHT22;4779;48.062;11.672;2023-04-02T01:14:03;7.20;99.90
9482;DHT22;4779;48.062;11.672;2023-04-02T01:16:41;7.20;99.90
9482;DHT22;4779;48.062;11.672;2023-04-02T01:19:27;7.20;99.90
9482;DHT22;4779;48.062;11.672;2023-04-02T01:21:58;7.20;99.90
9482;DHT22;4779;48.062;11.672;2023-04-02T01:24:30;7.30;99.90
9482;DHT22;4779;48.062;11.672;2023-04-02T01:26:59;7.30;99.90
9482;DHT22;4779;48.062;11.672;2023-04-02T01:29:29;7.30;99.90
9482;DHT22;4779;48.062;11.672;2023-04-02T02:05:30;7.30;99.90
9482;DHT22;4779;48.062;11.672;2023-04-02T02:07:57;7.30;99.90
9482;DHT22;4779;48.062;11.672;2023-04-02T02:10:28;7.20;99.90
9482;DHT22;4779;48.062;11.672;2023-04-02T02:12:57;7.30;99.90
9482;DHT22;4779;48.062;11.672;2023-04-02T02:15:25;7.30;99.90
9482;DHT22;4779;48.062;11.672;2023-04-02T02:17:56;7.20;99.90
9482;DHT22;4779;48.062;11.672;2023-04-02T02:20:25;7.30;99.90
9482;DHT22;4779;48.062;11.672;2023-04-02T02:22:55;7.20;99.90
9482;DHT22;4779;48.062;11.672;2023-04-02T02:25:25;7.20;99.90
9482;DHT22;4779;48.062;11.672;2023-04-02T02:27:58;7.10;99.90
9482;DHT22;4779;48.062;11.672;2023-04-02T02:30:27;7.20;99.90
9482;DHT22;4779;48.062;11.672;2023-04-02T02:33:01;7.20;99.90
9482;DHT22;4779;48.062;11.672;2023-04-02T02:35:32;7.20;99.90
9482;DHT22;4779;48.062;11.672;2023-04-02T02:40:52;7.20;99.90
9482;DHT22;4779;48.062;11.672;2023-04-02T02:43:19;7.20;99.90
9482;DHT22;4779;48.062;11.672;2023-04-02T02:45:47;7.20;99.90
9482;DHT22;4779;48.062;11.672;2023-04-02T02:48:17;7.30;99.90
9482;DHT22;4779;48.062;11.672;2023-04-02T02:50:45;7.20;99.90
9482;DHT22;4779;48.062;11.672;2023-04-02T02:53:18;7.20;99.90
9482;DHT22;4779;48.062;11.672;2023-04-02T02:55:47;7.20;99.90
9482;DHT22;4779;48.062;11.672;2023-04-02T02:58:17;7.20;99.90
9482;DHT22;4779;48.062;11.672;2023-04-02T03:00:48;7.20;99.90
9482;DHT22;4779;48.062;11.672;2023-04-02T03:03:17;7.20;99.90
9482;DHT22;4779;48.062;11.672;2023-04-02T03:05:49;7.10;99.90
9482;DHT22;4779;48.062;11.672;2023-04-02T03:08:23;7.10;99.90
9482;DHT22;4779;48.062;11.672;2023-04-02T03:10:55;7.10;99.90
9482;DHT22;4779;48.062;11.672;2023-04-02T03:13:26;7.10;99.90
9482;DHT22;4779;48.062;11.672;2023-04-02T03:16:01;7.20;99.90
9482;DHT22;4779;48.062;11.672;2023-04-02T03:18:36;7.10;99.90
9482;DHT22;4779;48.062;11.672;2023-04-02T03:21:14;7.10;99.90
9482;DHT22;4779;48.062;11.672;2023-04-02T03:23:48;7.10;99.90
9482;DHT22;4779;48.062;11.672;2023-04-02T03:26:19;7.10;99.90
9482;DHT22;4779;48.062;11.672;2023-04-02T03:28:51;7.20;99.90
9482;DHT22;4779;48.062;11.672;2023-04-02T03:31:23;7.10;99.90
9482;DHT22;4779;48.062;11.672;2023-04-02T03:33:55;7.00;99.90
9482;DHT22;4779;48.062;11.672;2023-04-02T03:36:27;7.00;99.90
9482;DHT22;4779;48.062;11.672;2023-04-02T03:39:02;7.00;99.90
9482;DHT22;4779;48.062;11.672;2023-04-02T03:41:37;7.10;99.90
9482;DHT22;4779;48.062;11.672;2023-04-02T03:44:16;7.10;99.90
9482;DHT22;4779;48.062;11.672;2023-04-02T03:46:50;7.10;99.90
9482;DHT22;4779;48.062;11.672;2023-04-02T03:49:27;7.10;99.90
9482;DHT22;4779;48.062;11.672;2023-04-02T03:51:59;7.10;99.90
9482;DHT22;4779;48.062;11.672;2023-04-02T03:54:30;7.10;99.90
9482;DHT22;4779;48.062;11.672;2023-04-02T03:56:58;7.00;99.90
9482;DHT22;4779;48.062;11.672;2023-04-02T03:59:31;7.00;99.90
9482;DHT22;4779;48.062;11.672;2023-04-02T04:02:09;7.10;99.90
9482;DHT22;4779;48.062;11.672;2023-04-02T04:04:40;7.10;99.90
9482;DHT22;4779;48.062;11.672;2023-04-02T04:07:14;7.10;99.90
9482;DHT22;4779;48.062;11.672;2023-04-02T04:09:48;7.00;99.90
9482;DHT22;4779;48.062;11.672;2023-04-02T04:12:25;7.00;99.90
9482;DHT22;4779;48.062;11.672;2023-04-02T04:14:55;7.00;99.90
9482;DHT22;4779;48.062;11.672;2023-04-02T04:17:31;7.00;99.90
9482;DHT22;4779;48.062;11.672;2023-04-02T04:20:04;7.00;99.90
9482;DHT22;4779;48.062;11.672;2023-04-02T04:22:34;7.00;99.90
9482;DHT22;4779;48.062;11.672;2023-04-02T04:25:05;7.00;99.90
9482;DHT22;4779;48.062;11.672;2023-04-02T04:27:39;7.00;99.90
9482;DHT22;4779;48.062;11.672;2023-04-02T04:30:15;6.90;99.90
9482;DHT22;4779;48.062;11.672;2023-04-02T04:32:47;6.90;99.90
9482;DHT22;4779;48.062;11.672;2023-04-02T04:35:19;6.90;99.90
9482;DHT22;4779;48.062;11.672;2023-04-02T04:37:49;6.90;99.90
9482;DHT22;4779;48.062;11.672;2023-04-02T04:40:27;6.90;99.90
9482;DHT22;4779;48.062;11.672;2023-04-02T04:42:58;7.00;99.90
9482;DHT22;4779;48.062;11.672;2023-04-02T04:45:37;7.00;99.90
9482;DHT22;4779;48.062;11.672;2023-04-02T04:48:11;7.00;99.90
9482;DHT22;4779;48.062;11.672;2023-04-02T04:50:46;6.90;99.90
9482;DHT22;4779;48.062;11.672;2023-04-02T04:53:16;6.90;99.90
9482;DHT22;4779;48.062;11.672;2023-04-02T04:55:48;6.90;99.90
9482;DHT22;4779;48.062;11.672;2023-04-02T04:58:20;6.90;99.90
9482;DHT22;4779;48.062;11.672;2023-04-02T05:00:55;6.90;99.90
9482;DHT22;4779;48.062;11.672;2023-04-02T05:03:29;6.90;99.90
9482;DHT22;4779;48.062;11.672;2023-04-02T05:06:02;6.90;99.90
9482;DHT22;4779;48.062;11.672;2023-04-02T05:08:33;6.90;99.90
9482;DHT22;4779;48.062;11.672;2023-04-02T05:11:06;6.90;99.90
9482;DHT22;4779;48.062;11.672;2023-04-02T05:13:39;6.80;99.90
9482;DHT22;4779;48.062;11.672;2023-04-02T05:16:14;6.80;99.90
9482;DHT22;4779;48.062;11.672;2023-04-02T05:18:46;6.90;99.90
9482;DHT22;4779;48.062;11.672;2023-04-02T05:21:19;6.90;99.90
9482;DHT22;4779;48.062;11.672;2023-04-02T05:23:53;6.90;99.90
9482;DHT22;4779;48.062;11.672;2023-04-02T05:26:28;7.00;99.90
9482;DHT22;4779;48.062;11.672;2023-04-02T05:28:59;7.00;99.90
9482;DHT22;4779;48.062;11.672;2023-04-02T05:31:30;7.00;99.90
9482;DHT22;4779;48.062;11.672;2023-04-02T05:34:02;6.90;99.90
9482;DHT22;4779;48.062;11.672;2023-04-02T05:36:30;7.00;99.90
9482;DHT22;4779;48.062;11.672;2023-04-02T05:38:58;7.00;99.90
9482;DHT22;4779;48.062;11.672;2023-04-02T05:41:28;7.10;99.90
9482;DHT22;4779;48.062;11.672;2023-04-02T05:44:05;7.20;99.90
9482;DHT22;4779;48.062;11.672;2023-04-02T05:46:35;7.10;99.90
9482;DHT22;4779;48.062;11.672;2023-04-02T05:49:07;7.00;99.90
9482;DHT22;4779;48.062;11.672;2023-04-02T05:51:40;7.10;99.90
9482;DHT22;4779;48.062;11.672;2023-04-02T05:54:16;7.10;99.90
9482;DHT22;4779;48.062;11.672;2023-04-02T05:56:51;7.10;99.90
9482;DHT22;4779;48.062;11.672;2023-04-02T05:59:23;7.20;99.90
9482;DHT22;4779;48.062;11.672;2023-04-02T06:01:55;7.30;99.90
9482;DHT22;4779;48.062;11.672;2023-04-02T06:04:28;7.30;99.90
9482;DHT22;4779;48.062;11.672;2023-04-02T06:07:02;7.40;99.90
9482;DHT22;4779;48.062;11.672;2023-04-02T06:09:37;7.30;99.90
9482;DHT22;4779;48.062;11.672;2023-04-02T06:12:17;7.40;99.90
9482;DHT22;4779;48.062;11.672;2023-04-02T06:14:45;7.40;99.90
9482;DHT22;4779;48.062;11.672;2023-04-02T06:17:13;7.40;99.90
9482;DHT22;4779;48.062;11.672;2023-04-02T06:19:42;7.50;99.90
9482;DHT22;4779;48.062;11.672;2023-04-02T06:22:19;7.50;99.90
9482;DHT22;4779;48.062;11.672;2023-04-02T06:24:51;7.40;99.90
9482;DHT22;4779;48.062;11.672;2023-04-02T06:27:23;7.40;99.90
9482;DHT22;4779;48.062;11.672;2023-04-02T06:29:54;7.40;99.90
9482;DHT22;4779;48.062;11.672;2023-04-02T06:32:23;7.40;99.90
9482;DHT22;4779;48.062;11.672;2023-04-02T06:34:51;7.40;99.90
9482;DHT22;4779;48.062;11.672;2023-04-02T06:37:25;7.40;99.90
9482;DHT22;4779;48.062;11.672;2023-04-02T06:39:55;7.40;99.90
9482;DHT22;4779;48.062;11.672;2023-04-02T06:42:27;7.40;99.90
9482;DHT22;4779;48.062;11.672;2023-04-02T06:44:56;7.50;99.90
9482;DHT22;4779;48.062;11.672;2023-04-02T06:47:28;7.60;99.90
9482;DHT22;4779;48.062;11.672;2023-04-02T06:50:01;7.60;99.90
9482;DHT22;4779;48.062;11.672;2023-04-02T06:52:33;7.60;99.90
9482;DHT22;4779;48.062;11.672;2023-04-02T06:55:06;7.60;99.90
9482;DHT22;4779;48.062;11.672;2023-04-02T06:57:44;7.70;99.90
9482;DHT22;4779;48.062;11.672;2023-04-02T07:00:23;7.70;99.90
9482;DHT22;4779;48.062;11.672;2023-04-02T07:02:51;7.70;99.90
9482;DHT22;4779;48.062;11.672;2023-04-02T07:05:18;7.80;99.90
9482;DHT22;4779;48.062;11.672;2023-04-02T07:07:45;7.90;99.90
9482;DHT22;4779;48.062;11.672;2023-04-02T07:10:12;7.90;99.90
9482;DHT22;4779;48.062;11.672;2023-04-02T07:12:40;7.90;99.90
9482;DHT22;4779;48.062;11.672;2023-04-02T07:15:10;8.00;99.90
9482;DHT22;4779;48.062;11.672;2023-04-02T07:17:40;8.00;99.90
9482;DHT22;4779;48.062;11.672;2023-04-02T07:20:23;8.00;99.90
9482;DHT22;4779;48.062;11.672;2023-04-02T07:22:53;8.10;99.90
9482;DHT22;4779;48.062;11.672;2023-04-02T07:25:20;8.10;99.90
9482;DHT22;4779;48.062;11.672;2023-04-02T07:27:47;8.10;99.90
9482;DHT22;4779;48.062;11.672;2023-04-02T07:30:16;8.20;99.90
9482;DHT22;4779;48.062;11.672;2023-04-02T07:32:43;8.20;99.90
9482;DHT22;4779;48.062;11.672;2023-04-02T07:35:10;8.30;99.90
9482;DHT22;4779;48.062;11.672;2023-04-02T07:37:38;8.30;99.90
9482;DHT22;4779;48.062;11.672;2023-04-02T07:40:06;8.40;99.90
9482;DHT22;4779;48.062;11.672;2023-04-02T07:42:40;8.40;99.90
9482;DHT22;4779;48.062;11.672;2023-04-02T07:45:08;8.50;99.90
9482;DHT22;4779;48.062;11.672;2023-04-02T07:47:36;8.60;99.90
9482;DHT22;4779;48.062;11.672;2023-04-02T07:50:04;8.60;99.90
9482;DHT22;4779;48.062;11.672;2023-04-02T07:52:32;8.70;99.90
9482;DHT22;4779;48.062;11.672;2023-04-02T07:54:59;8.80;99.90
9482;DHT22;4779;48.062;11.672;2023-04-02T07:57:27;8.80;99.90
9482;DHT22;4779;48.062;11.672;2023-04-02T07:59:54;8.90;99.90
9482;DHT22;4779;48.062;11.672;2023-04-02T08:02:21;8.90;99.90
9482;DHT22;4779;48.062;11.672;2023-04-02T08:04:50;9.00;99.90
9482;DHT22;4779;48.062;11.672;2023-04-02T08:07:17;9.00;99.90
9482;DHT22;4779;48.062;11.672;2023-04-02T08:09:44;9.10;99.90
9482;DHT22;4779;48.062;11.672;2023-04-02T08:12:12;9.10;99.90
9482;DHT22;4779;48.062;11.672;2023-04-02T08:14:39;9.10;99.90
9482;DHT22;4779;48.062;11.672;2023-04-02T08:17:06;9.10;99.90
9482;DHT22;4779;48.062;11.672;2023-04-02T08:19:33;9.20;99.90
9482;DHT22;4779;48.062;11.672;2023-04-02T08:22:01;9.20;99.90
9482;DHT22;4779;48.062;11.672;2023-04-02T08:24:28;9.20;99.90
9482;DHT22;4779;48.062;11.672;2023-04-02T08:26:55;9.20;99.90
9482;DHT22;4779;48.062;11.672;2023-04-02T08:29:22;9.20;99.90
9482;DHT22;4779;48.062;11.672;2023-04-02T08:31:49;9.30;99.90
9482;DHT22;4779;48.062;11.672;2023-04-02T08:34:16;9.40;99.90
9482;DHT22;4779;48.062;11.672;2023-04-02T08:36:43;9.50;99.90
9482;DHT22;4779;48.062;11.672;2023-04-02T08:39:12;9.60;99.90
9482;DHT22;4779;48.062;11.672;2023-04-02T08:41:43;9.60;99.90
9482;DHT22;4779;48.062;11.672;2023-04-02T08:44:26;9.70;99.90
9482;DHT22;4779;48.062;11.672;2023-04-02T08:46:59;9.80;99.90
9482;DHT22;4779;48.062;11.672;2023-04-02T08:49:31;9.90;99.90
9482;DHT22;4779;48.062;11.672;2023-04-02T08:52:01;10.00;99.90
9482;DHT22;4779;48.062;11.672;2023-04-02T08:54:32;10.10;99.90
9482;DHT22;4779;48.062;11.672;2023-04-02T08:57:06;10.10;99.90
9482;DHT22;4779;48.062;11.672;2023-04-02T08:59:38;10.10;99.90
9482;DHT22;4779;48.062;11.672;2023-04-02T09:02:26;10.20;99.90
9482;DHT22;4779;48.062;11.672;2023-04-02T09:04:56;10.20;99.90
9482;DHT22;4779;48.062;11.672;2023-04-02T09:07:24;10.10;99.90
9482;DHT22;4779;48.062;11.672;2023-04-02T09:09:53;10.10;99.90
9482;DHT22;4779;48.062;11.672;2023-04-02T09:12:25;10.10;99.90
9482;DHT22;4779;48.062;11.672;2023-04-02T09:15:03;10.10;99.90
9482;DHT22;4779;48.062;11.672;2023-04-02T09:17:32;10.10;99.90
9482;DHT22;4779;48.062;11.672;2023-04-02T09:20:02;10.10;99.90
9482;DHT22;4779;48.062;11.672;2023-04-02T09:22:31;10.20;99.90
9482;DHT22;4779;48.062;11.672;2023-04-02T09:25:02;10.30;99.90
9482;DHT22;4779;48.062;11.672;2023-04-02T09:27:32;10.30;99.90
9482;DHT22;4779;48.062;11.672;2023-04-02T09:30:03;10.40;99.90
9482;DHT22;4779;48.062;11.672;2023-04-02T09:32:43;10.50;99.90
9482;DHT22;4779;48.062;11.672;2023-04-02T09:35:13;10.70;99.90
9482;DHT22;4779;48.062;11.672;2023-04-02T09:37:41;10.80;99.90
9482;DHT22;4779;48.062;11.672;2023-04-02T09:40:20;11.00;99.90
9482;DHT22;4779;48.062;11.672;2023-04-02T09:42:49;11.10;99.90
9482;DHT22;4779;48.062;11.672;2023-04-02T09:45:27;11.10;99.90
9482;DHT22;4779;48.062;11.672;2023-04-02T09:47:54;11.40;99.90
9482;DHT22;4779;48.062;11.672;2023-04-02T09:50:26;11.50;99.90
9482;DHT22;4779;48.062;11.672;2023-04-02T09:52:53;11.60;99.90
9482;DHT22;4779;48.062;11.672;2023-04-02T09:55:23;11.70;99.90
9482;DHT22;4779;48.062;11.672;2023-04-02T09:58:09;11.80;99.90
9482;DHT22;4779;48.062;11.672;2023-04-02T10:00:36;11.90;99.90
9482;DHT22;4779;48.062;11.672;2023-04-02T10:03:10;11.70;99.90
9482;DHT22;4779;48.062;11.672;2023-04-02T10:05:42;11.60;99.90
9482;DHT22;4779;48.062;11.672;2023-04-02T10:08:17;11.50;99.90
9482;DHT22;4779;48.062;11.672;2023-04-02T10:10:48;11.50;99.90
9482;DHT22;4779;48.062;11.672;2023-04-02T10:13:23;11.40;99.90
9482;DHT22;4779;48.062;11.672;2023-04-02T10:15:54;11.50;99.90
9482;DHT22;4779;48.062;11.672;2023-04-02T10:18:33;11.60;99.90
9482;DHT22;4779;48.062;11.672;2023-04-02T10:21:04;11.80;99.90
9482;DHT22;4779;48.062;11.672;2023-04-02T10:23:31;11.90;99.90
9482;DHT22;4779;48.062;11.672;2023-04-02T10:26:12;11.90;99.90
9482;DHT22;4779;48.062;11.672;2023-04-02T10:28:54;11.90;99.90
9482;DHT22;4779;48.062;11.672;2023-04-02T10:31:27;11.70;99.90
9482;DHT22;4779;48.062;11.672;2023-04-02T10:33:59;11.40;99.90
9482;DHT22;4779;48.062;11.672;2023-04-02T10:36:35;11.30;99.90
9482;DHT22;4779;48.062;11.672;2023-04-02T10:39:10;11.20;99.90
9482;DHT22;4779;48.062;11.672;2023-04-02T10:41:45;11.30;99.90
9482;DHT22;4779;48.062;11.672;2023-04-02T10:44:24;12.00;99.90
9482;DHT22;4779;48.062;11.672;2023-04-02T10:47:08;12.80;99.90
9482;DHT22;4779;48.062;11.672;2023-04-02T10:49:40;12.90;99.90
9482;DHT22;4779;48.062;11.672;2023-04-02T10:52:11;12.80;99.90
9482;DHT22;4779;48.062;11.672;2023-04-02T10:54:45;12.70;99.90
9482;DHT22;4779;48.062;11.672;2023-04-02T10:57:24;12.70;99.90
9482;DHT22;4779;48.062;11.672;2023-04-02T10:59:56;12.60;99.90
9482;DHT22;4779;48.062;11.672;2023-04-02T11:02:31;12.50;99.90
9482;DHT22;4779;48.062;11.672;2023-04-02T11:05:05;12.20;99.90
9482;DHT22;4779;48.062;11.672;2023-04-02T11:07:41;12.10;99.90
9482;DHT22;4779;48.062;11.672;2023-04-02T11:10:14;12.20;99.90
9482;DHT22;4779;48.062;11.672;2023-04-02T11:12:50;12.20;99.90
9482;DHT22;4779;48.062;11.672;2023-04-02T11:15:19;12.30;99.90
9482;DHT22;4779;48.062;11.672;2023-04-02T11:17:46;12.30;99.90
9482;DHT22;4779;48.062;11.672;2023-04-02T11:23:34;12.80;99.90
9482;DHT22;4779;48.062;11.672;2023-04-02T11:29:21;14.50;99.80
9482;DHT22;4779;48.062;11.672;2023-04-02T11:31:50;15.10;98.30
9482;DHT22;4779;48.062;11.672;2023-04-02T11:34:57;15.30;98.80
9482;DHT22;4779;48.062;11.672;2023-04-02T11:37:32;15.10;99.30
9482;DHT22;4779;48.062;11.672;2023-04-02T11:40:00;14.70;98.40
9482;DHT22;4779;48.062;11.672;2023-04-02T11:42:29;14.30;97.90
9482;DHT22;4779;48.062;11.672;2023-04-02T11:45:01;13.90;98.30
9482;DHT22;4779;48.062;11.672;2023-04-02T11:50:44;13.00;99.70
9482;DHT22;4779;48.062;11.672;2023-04-02T11:53:19;12.60;99.70
9482;DHT22;4779;48.062;11.672;2023-04-02T11:56:04;12.50;99.90
9482;DHT22;4779;48.062;11.672;2023-04-02T11:58:42;12.20;99.90
9482;DHT22;4779;48.062;11.672;2023-04-02T12:07:33;11.80;99.90
9482;DHT22;4779;48.062;11.672;2023-04-02T12:10:02;11.90;99.90
9482;DHT22;4779;48.062;11.672;2023-04-02T12:12:33;12.00;99.90
9482;DHT22;4779;48.062;11.672;2023-04-02T12:15:02;12.00;99.90
9482;DHT22;4779;48.062;11.672;2023-04-02T12:17:33;12.00;99.90
9482;DHT22;4779;48.062;11.672;2023-04-02T12:20:02;11.90;99.90
9482;DHT22;4779;48.062;11.672;2023-04-02T12:22:47;11.90;99.90
9482;DHT22;4779;48.062;11.672;2023-04-02T12:25:22;11.90;99.90
9482;DHT22;4779;48.062;11.672;2023-04-02T12:28:05;11.90;99.90
9482;DHT22;4779;48.062;11.672;2023-04-02T12:30:39;11.90;99.90
9482;DHT22;4779;48.062;11.672;2023-04-02T12:33:26;12.10;99.90
9482;DHT22;4779;48.062;11.672;2023-04-02T12:35:56;12.60;99.90
9482;DHT22;4779;48.062;11.672;2023-04-02T12:38:25;12.80;99.90
9482;DHT22;4779;48.062;11.672;2023-04-02T12:40:53;13.10;99.90
9482;DHT22;4779;48.062;11.672;2023-04-02T12:43:25;13.20;99.90
9482;DHT22;4779;48.062;11.672;2023-04-02T12:45:53;13.30;99.90
9482;DHT22;4779;48.062;11.672;2023-04-02T12:48:22;13.40;99.90
9482;DHT22;4779;48.062;11.672;2023-04-02T12:50:50;13.20;99.90
9482;DHT22;4779;48.062;11.672;2023-04-02T12:53:20;12.90;99.90
9482;DHT22;4779;48.062;11.672;2023-04-02T12:55:48;12.70;99.90
9482;DHT22;4779;48.062;11.672;2023-04-02T12:58:27;12.50;99.90
9482;DHT22;4779;48.062;11.672;2023-04-02T13:01:13;12.50;99.90
9482;DHT22;4779;48.062;11.672;2023-04-02T13:03:41;12.30;99.90
9482;DHT22;4779;48.062;11.672;2023-04-02T13:06:19;12.00;99.90
9482;DHT22;4779;48.062;11.672;2023-04-02T13:08:47;11.60;99.90
9482;DHT22;4779;48.062;11.672;2023-04-02T13:11:14;11.30;99.90
9482;DHT22;4779;48.062;11.672;2023-04-02T13:13:42;11.20;99.90
9482;DHT22;4779;48.062;11.672;2023-04-02T13:16:28;10.90;99.90
9482;DHT22;4779;48.062;11.672;2023-04-02T13:19:22;10.70;99.90
9482;DHT22;4779;48.062;11.672;2023-04-02T13:21:51;10.50;99.90
9482;DHT22;4779;48.062;11.672;2023-04-02T13:24:19;10.50;99.90
9482;DHT22;4779;48.062;11.672;2023-04-02T13:26:47;10.40;99.90
9482;DHT22;4779;48.062;11.672;2023-04-02T13:29:18;10.30;99.90
9482;DHT22;4779;48.062;11.672;2023-04-02T13:31:46;10.20;99.90
9482;DHT22;4779;48.062;11.672;2023-04-02T13:34:12;10.10;99.90
9482;DHT22;4779;48.062;11.672;2023-04-02T13:36:41;10.10;99.90
9482;DHT22;4779;48.062;11.672;2023-04-02T13:39:08;10.10;99.90
9482;DHT22;4779;48.062;11.672;2023-04-02T13:41:39;10.10;99.90
9482;DHT22;4779;48.062;11.672;2023-04-02T13:44:10;10.10;99.90
9482;DHT22;4779;48.062;11.672;2023-04-02T13:46:40;10.00;99.90
9482;DHT22;4779;48.062;11.672;2023-04-02T13:49:09;10.10;99.90
9482;DHT22;4779;48.062;11.672;2023-04-02T13:51:38;10.20;99.90
9482;DHT22;4779;48.062;11.672;2023-04-02T13:54:09;10.20;99.90
9482;DHT22;4779;48.062;11.672;2023-04-02T13:56:38;10.10;99.90
9482;DHT22;4779;48.062;11.672;2023-04-02T13:59:05;10.10;99.90
9482;DHT22;4779;48.062;11.672;2023-04-02T14:01:32;10.20;99.90
9482;DHT22;4779;48.062;11.672;2023-04-02T14:03:59;10.20;99.90
9482;DHT22;4779;48.062;11.672;2023-04-02T14:06:38;10.20;99.90
9482;DHT22;4779;48.062;11.672;2023-04-02T14:09:12;10.20;99.90
9482;DHT22;4779;48.062;11.672;2023-04-02T14:11:48;10.00;99.90
9482;DHT22;4779;48.062;11.672;2023-04-02T14:14:30;10.00;99.90
9482;DHT22;4779;48.062;11.672;2023-04-02T14:17:10;10.00;99.90
9482;DHT22;4779;48.062;11.672;2023-04-02T14:19:53;10.10;99.90
9482;DHT22;4779;48.062;11.672;2023-04-02T14:22:28;10.20;99.90
9482;DHT22;4779;48.062;11.672;2023-04-02T14:25:03;10.10;99.90
9482;DHT22;4779;48.062;11.672;2023-04-02T14:27:39;10.20;99.90
9482;DHT22;4779;48.062;11.672;2023-04-02T14:30:15;10.30;99.90
9482;DHT22;4779;48.062;11.672;2023-04-02T14:32:48;10.30;99.90
9482;DHT22;4779;48.062;11.672;2023-04-02T14:35:22;10.40;99.90
9482;DHT22;4779;48.062;11.672;2023-04-02T14:37:56;10.40;99.90
9482;DHT22;4779;48.062;11.672;2023-04-02T14:40:33;10.10;99.90
9482;DHT22;4779;48.062;11.672;2023-04-02T14:43:04;10.00;99.90
9482;DHT22;4779;48.062;11.672;2023-04-02T14:45:44;9.80;99.90
9482;DHT22;4779;48.062;11.672;2023-04-02T14:48:24;9.80;99.90
9482;DHT22;4779;48.062;11.672;2023-04-02T14:50:58;9.60;99.90
9482;DHT22;4779;48.062;11.672;2023-04-02T14:53:31;9.60;99.90
9482;DHT22;4779;48.062;11.672;2023-04-02T14:56:06;9.40;99.90
9482;DHT22;4779;48.062;11.672;2023-04-02T14:58:36;9.40;99.90
9482;DHT22;4779;48.062;11.672;2023-04-02T15:01:09;9.50;99.90
9482;DHT22;4779;48.062;11.672;2023-04-02T15:03:41;9.40;99.90
9482;DHT22;4779;48.062;11.672;2023-04-02T15:06:12;9.50;99.90
9482;DHT22;4779;48.062;11.672;2023-04-02T15:08:45;9.60;99.90
9482;DHT22;4779;48.062;11.672;2023-04-02T15:11:18;9.70;99.90
9482;DHT22;4779;48.062;11.672;2023-04-02T15:13:51;9.70;99.90
9482;DHT22;4779;48.062;11.672;2023-04-02T15:16:23;9.80;99.90
9482;DHT22;4779;48.062;11.672;2023-04-02T15:18:54;9.80;99.90
9482;DHT22;4779;48.062;11.672;2023-04-02T15:21:36;9.60;99.90
9482;DHT22;4779;48.062;11.672;2023-04-02T15:24:13;9.50;99.90
9482;DHT22;4779;48.062;11.672;2023-04-02T15:26:49;9.50;99.90
9482;DHT22;4779;48.062;11.672;2023-04-02T15:29:25;9.40;99.90
9482;DHT22;4779;48.062;11.672;2023-04-02T15:31:59;9.40;99.90
9482;DHT22;4779;48.062;11.672;2023-04-02T15:34:31;9.30;99.90
9482;DHT22;4779;48.062;11.672;2023-04-02T15:37:06;9.30;99.90
9482;DHT22;4779;48.062;11.672;2023-04-02T15:42:37;9.40;99.90
9482;DHT22;4779;48.062;11.672;2023-04-02T15:45:28;9.40;99.90
9482;DHT22;4779;48.062;11.672;2023-04-02T15:51:10;9.30;99.90
9482;DHT22;4779;48.062;11.672;2023-04-02T15:53:45;9.30;99.90
9482;DHT22;4779;48.062;11.672;2023-04-02T15:56:20;9.30;99.90
9482;DHT22;4779;48.062;11.672;2023-04-02T15:58:58;9.10;99.90
9482;DHT22;4779;48.062;11.672;2023-04-02T16:01:34;9.00;99.90
9482;DHT22;4779;48.062;11.672;2023-04-02T16:04:21;9.00;99.90
9482;DHT22;4779;48.062;11.672;2023-04-02T16:07:00;8.90;99.90
9482;DHT22;4779;48.062;11.672;2023-04-02T16:09:39;8.90;99.90
9482;DHT22;4779;48.062;11.672;2023-04-02T16:12:13;9.00;99.90
9482;DHT22;4779;48.062;11.672;2023-04-02T16:14:43;8.90;99.90
9482;DHT22;4779;48.062;11.672;2023-04-02T16:17:15;8.90;99.90
9482;DHT22;4779;48.062;11.672;2023-04-02T16:19:46;8.90;99.90
9482;DHT22;4779;48.062;11.672;2023-04-02T16:22:19;8.90;99.90
9482;DHT22;4779;48.062;11.672;2023-04-02T16:24:48;9.00;99.90
9482;DHT22;4779;48.062;11.672;2023-04-02T16:27:25;8.90;99.90
9482;DHT22;4779;48.062;11.672;2023-04-02T16:30:23;8.80;99.90
9482;DHT22;4779;48.062;11.672;2023-04-02T16:33:03;8.50;99.90
9482;DHT22;4779;48.062;11.672;2023-04-02T16:35:37;8.40;99.90
9482;DHT22;4779;48.062;11.672;2023-04-02T16:38:13;8.30;99.90
9482;DHT22;4779;48.062;11.672;2023-04-02T16:40:49;8.20;99.90
9482;DHT22;4779;48.062;11.672;2023-04-02T16:43:25;8.10;99.90
9482;DHT22;4779;48.062;11.672;2023-04-02T16:46:02;8.10;99.90
9482;DHT22;4779;48.062;11.672;2023-04-02T16:48:38;8.00;99.90
9482;DHT22;4779;48.062;11.672;2023-04-02T16:51:12;8.00;99.90
9482;DHT22;4779;48.062;11.672;2023-04-02T16:53:46;8.00;99.90
9482;DHT22;4779;48.062;11.672;2023-04-02T16:56:23;8.00;99.90
9482;DHT22;4779;48.062;11.672;2023-04-02T16:59:00;8.00;99.90
9482;DHT22;4779;48.062;11.672;2023-04-02T17:01:37;8.00;99.90
9482;DHT22;4779;48.062;11.672;2023-04-02T17:04:26;7.90;99.90
9482;DHT22;4779;48.062;11.672;2023-04-02T17:06:59;7.90;99.90
9482;DHT22;4779;48.062;11.672;2023-04-02T17:09:36;7.80;99.90
9482;DHT22;4779;48.062;11.672;2023-04-02T17:12:14;7.80;99.90
9482;DHT22;4779;48.062;11.672;2023-04-02T17:14:45;7.70;99.90
9482;DHT22;4779;48.062;11.672;2023-04-02T17:17:17;7.70;99.90
9482;DHT22;4779;48.062;11.672;2023-04-02T17:19:46;7.70;99.90
9482;DHT22;4779;48.062;11.672;2023-04-02T17:22:19;7.60;99.90
9482;DHT22;4779;48.062;11.672;2023-04-02T17:24:49;7.60;99.90
9482;DHT22;4779;48.062;11.672;2023-04-02T17:27:22;7.50;99.90
9482;DHT22;4779;48.062;11.672;2023-04-02T17:29:53;7.50;99.90
9482;DHT22;4779;48.062;11.672;2023-04-02T17:32:27;7.30;99.90